createdAt,value
2023-02-02T00:02:49.249Z,105.50
2023-02-02T00:08:01.911Z,109.93
2023-02-02T00:13:04.508Z,100.10
2023-02-02T00:18:07.892Z,99.97
2023-02-02T00:23:20.546Z,96.63
2023-02-02T00:28:33.223Z,103.47
2023-02-02T00:33:47.646Z,93.38
2023-02-02T00:38:51.933Z,92.18
2023-02-02T00:44:12.964Z,89.72
2023-02-02T00:49:15.926Z,91.63
2023-02-02T00:54:18.848Z,93.65
2023-02-02T00:59:21.447Z,96.95
2023-02-02T01:04:24.310Z,88.43
2023-02-02T01:09:26.892Z,97.38
2023-02-02T01:14:29.541Z,97.85
2023-02-02T01:19:42.440Z,94.60
2023-02-02T01:24:45.954Z,91.55
2023-02-02T01:29:49.049Z,96.13
2023-02-02T01:34:51.866Z,89.78
2023-02-02T01:39:54.531Z,94.80
2023-02-02T01:45:18.553Z,94.78
2023-02-02T01:50:27.214Z,87.32
2023-02-02T01:55:33.363Z,88.80
2023-02-02T02:00:36.049Z,85.32
2023-02-02T02:05:43.899Z,83.57
2023-02-02T02:10:46.657Z,79.38
2023-02-02T02:16:21.536Z,76.13
2023-02-02T02:21:52.484Z,77.13
2023-02-02T02:27:21.588Z,75.25
2023-02-02T02:32:45.506Z,73.65
2023-02-02T02:38:00.212Z,70.13
2023-02-02T02:43:08.702Z,74.20
2023-02-02T02:48:12.324Z,71.50
2023-02-02T02:53:19.021Z,71.30
2023-02-02T02:58:55.839Z,71.28
2023-02-02T03:04:17.482Z,69.75
2023-02-02T03:09:24.495Z,77.00
2023-02-02T03:14:36.736Z,74.28
2023-02-02T03:19:39.343Z,70.55
2023-02-02T03:24:42.270Z,69.90
2023-02-02T03:29:45.266Z,72.82
2023-02-02T03:34:48.200Z,74.85
2023-02-02T03:39:52.691Z,94.43
2023-02-02T03:45:05.630Z,89.45
2023-02-02T03:50:18.593Z,84.70
2023-02-02T03:55:21.608Z,83.55
2023-02-02T04:00:24.699Z,80.65
2023-02-02T04:05:27.691Z,83.18
2023-02-02T04:10:43.406Z,84.60
2023-02-02T04:15:46.280Z,81.15
2023-02-02T04:20:49.606Z,85.63
2023-02-02T04:25:53.310Z,85.57
2023-02-02T04:30:57.293Z,75.45
2023-02-02T04:36:00.051Z,74.93
2023-02-02T04:41:11.164Z,78.15
2023-02-02T04:46:15.253Z,79.53
2023-02-02T04:51:19.788Z,76.72
2023-02-02T04:56:23.766Z,70.50
2023-02-02T05:01:26.720Z,74.22
2023-02-02T05:06:29.343Z,68.13
2023-02-02T05:11:42.015Z,141.50
2023-02-02T05:16:45.365Z,73.85
2023-02-02T05:21:51.453Z,66.45
2023-02-02T05:26:59.401Z,67.50
2023-02-02T05:32:02.276Z,66.88
2023-02-02T05:37:05.153Z,67.55
2023-02-02T05:42:07.814Z,67.40
2023-02-02T05:47:10.669Z,79.75
2023-02-02T05:52:26.376Z,68.07
2023-02-02T05:57:29.462Z,71.80
2023-02-02T06:02:32.074Z,71.35
2023-02-02T06:07:34.680Z,86.47
2023-02-02T06:12:37.317Z,73.20
2023-02-02T06:17:40.112Z,72.25
2023-02-02T06:22:44.727Z,100.93
2023-02-02T06:28:00.867Z,95.68
2023-02-02T06:33:03.530Z,97.28
2023-02-02T06:38:06.336Z,77.03
2023-02-02T06:43:10.047Z,134.73
2023-02-02T06:48:12.778Z,92.60
2023-02-02T06:53:16.759Z,89.78
2023-02-02T06:58:26.886Z,99.05
2023-02-02T07:03:29.627Z,104.47
2023-02-02T07:08:32.214Z,96.13
2023-02-02T07:13:37.561Z,83.15
2023-02-02T07:18:40.892Z,81.97
2023-02-02T07:23:43.716Z,90.05
2023-02-02T07:28:47.200Z,99.47
2023-02-02T07:33:50.343Z,81.97
2023-02-02T07:38:58.496Z,84.05
2023-02-02T07:44:01.353Z,89.45
2023-02-02T07:49:04.447Z,85.38
2023-02-02T07:54:07.183Z,82.22
2023-02-02T07:59:17.524Z,107.95
2023-02-02T08:04:20.703Z,106.28
2023-02-02T08:09:23.402Z,113.20
2023-02-02T08:14:36.195Z,105.20
2023-02-02T08:19:39.103Z,104.53
2023-02-02T08:24:43.799Z,96.85
2023-02-02T08:29:56.689Z,93.70
2023-02-02T08:34:59.385Z,118.47
2023-02-02T08:40:02.236Z,87.05
2023-02-02T08:46:01.093Z,84.70
2023-02-02T08:50:28.078Z,92.00
2023-02-02T08:55:40.954Z,99.53
2023-02-02T09:00:44.403Z,87.47
2023-02-02T09:05:47.122Z,84.15
2023-02-02T09:10:49.751Z,86.97
2023-02-02T09:15:52.342Z,86.43
2023-02-02T09:20:55.183Z,82.10
2023-02-02T09:25:58.196Z,83.68
2023-02-02T09:31:02.641Z,86.13
2023-02-02T09:36:17.727Z,80.18
2023-02-02T09:47:05.155Z,77.57
2023-02-02T09:52:19.284Z,76.10
2023-02-02T09:57:31.422Z,73.80
2023-02-02T10:02:46.867Z,73.35
2023-02-02T10:07:54.863Z,75.38
2023-02-02T10:13:05.644Z,72.10
2023-02-02T10:18:30.903Z,71.13
2023-02-02T10:23:43.333Z,67.60
2023-02-02T10:29:16.130Z,67.28
2023-02-02T10:35:03.459Z,64.32
2023-02-02T10:40:33.969Z,67.23
2023-02-02T10:45:40.217Z,65.22
2023-02-02T10:50:46.585Z,68.70
2023-02-02T10:56:07.857Z,66.63
2023-02-02T11:01:12.359Z,66.25
2023-02-02T11:06:43.661Z,65.63
2023-02-02T11:11:53.230Z,64.57
2023-02-02T11:17:22.745Z,97.72
2023-02-02T11:22:37.861Z,68.35
2023-02-02T11:32:48.951Z,66.90
2023-02-02T11:38:02.639Z,60.72
2023-02-02T11:43:20.566Z,68.32
2023-02-02T11:48:29.287Z,68.43
2023-02-02T11:53:35.082Z,60.55
2023-02-02T11:58:51.055Z,61.58
2023-02-02T12:03:57.201Z,60.50
2023-02-02T12:09:03.490Z,62.22
2023-02-02T12:14:37.740Z,62.05
2023-02-02T12:19:58.166Z,60.85
2023-02-02T12:25:16.317Z,60.42
2023-02-02T12:30:42.244Z,63.80
2023-02-02T12:36:08.945Z,61.13
2023-02-02T12:41:33.463Z,60.42
2023-02-02T12:47:15.282Z,59.78
2023-02-02T12:52:42.476Z,63.25
2023-02-02T12:58:32.520Z,60.35
2023-02-02T13:03:49.601Z,59.45
2023-02-02T13:09:14.452Z,57.35
2023-02-02T13:14:17.898Z,57.97
2023-02-02T13:19:20.583Z,60.95
2023-02-02T13:24:32.155Z,57.05
2023-02-02T13:29:47.721Z,55.33
2023-02-02T13:35:11.749Z,63.28
2023-02-02T13:40:25.324Z,55.88
2023-02-02T13:45:40.139Z,54.55
2023-02-02T13:51:07.296Z,52.70
2023-02-02T13:56:30.272Z,53.35
2023-02-02T14:01:33.708Z,52.65
2023-02-02T14:12:12.544Z,51.15
2023-02-02T14:17:17.328Z,51.22
2023-02-02T14:22:40.825Z,50.78
2023-02-02T14:27:57.060Z,50.50
2023-02-02T14:33:21.769Z,48.67
2023-02-02T14:38:33.494Z,47.87
2023-02-02T14:43:47.105Z,50.40
2023-02-02T14:48:57.982Z,48.88
2023-02-02T14:54:09.659Z,47.00
2023-02-02T14:59:30.842Z,46.83
2023-02-02T15:04:33.772Z,46.80
2023-02-02T15:09:46.639Z,48.83
2023-02-02T15:15:13.273Z,48.45
2023-02-02T15:20:29.529Z,46.10
2023-02-02T15:26:01.948Z,47.95
2023-02-02T15:31:23.695Z,45.78
2023-02-02T15:36:33.480Z,47.58
2023-02-02T15:41:43.330Z,50.08
2023-02-02T15:46:46.664Z,44.60
2023-02-02T15:52:00.962Z,40.55
2023-02-02T15:57:04.630Z,45.30
2023-02-02T16:02:07.294Z,62.83
2023-02-02T16:07:17.990Z,48.83
2023-02-02T16:12:23.834Z,41.45
2023-02-02T16:17:32.069Z,59.83
2023-02-02T16:22:36.664Z,57.53
2023-02-02T16:27:44.737Z,50.53
2023-02-02T16:32:47.448Z,44.10
2023-02-02T16:37:50.082Z,56.00
2023-02-02T16:43:18.411Z,52.67
2023-02-02T16:48:43.172Z,72.45
2023-02-02T16:53:58.866Z,130.02
2023-02-02T16:59:19.419Z,54.70
2023-02-02T17:04:33.248Z,77.82
2023-02-02T17:09:42.077Z,107.18
2023-02-02T17:15:01.376Z,62.88
2023-02-02T17:20:06.153Z,50.17
2023-02-02T17:25:16.470Z,53.38
2023-02-02T17:30:20.555Z,50.15
2023-02-02T17:35:27.253Z,50.38
2023-02-02T17:40:30.299Z,51.00
2023-02-02T17:45:37.926Z,57.95
2023-02-02T17:50:41.806Z,148.60
2023-02-02T17:55:46.616Z,100.97
2023-02-02T18:00:54.594Z,52.60
2023-02-02T18:05:58.575Z,71.85
2023-02-02T18:11:01.476Z,72.60
2023-02-02T18:16:07.309Z,59.03
2023-02-02T18:21:11.408Z,123.95
2023-02-02T18:26:20.695Z,75.13
2023-02-02T18:31:24.722Z,58.15
2023-02-02T18:36:29.399Z,77.18
2023-02-02T18:41:33.691Z,58.60
2023-02-02T18:46:37.259Z,60.50
2023-02-02T18:51:42.501Z,59.15
2023-02-02T18:56:47.307Z,61.70
2023-02-02T19:01:50.932Z,61.00
2023-02-02T19:07:12.910Z,60.10
2023-02-02T19:12:16.546Z,62.05
2023-02-02T19:17:25.560Z,58.63
2023-02-02T19:22:33.003Z,60.78
2023-02-02T19:27:44.115Z,64.40
2023-02-02T19:32:47.624Z,61.30
2023-02-02T19:37:58.222Z,66.78
2023-02-02T19:43:20.155Z,67.38
2023-02-02T19:48:28.018Z,58.83
2023-02-02T19:53:41.845Z,69.07
2023-02-02T19:58:46.136Z,69.53
2023-02-02T20:03:51.905Z,55.92
2023-02-02T20:08:55.550Z,61.47
2023-02-02T20:14:01.025Z,77.75
2023-02-02T20:24:37.648Z,70.18
2023-02-02T20:29:43.640Z,69.95
2023-02-02T20:34:47.397Z,124.00
2023-02-02T20:40:21.586Z,77.63
2023-02-02T20:45:25.811Z,109.57
2023-02-02T20:50:32.112Z,85.82
2023-02-02T20:55:38.706Z,121.45
2023-02-02T21:00:42.654Z,145.38
2023-02-02T21:05:46.162Z,103.03
2023-02-02T21:10:50.755Z,74.83
2023-02-02T21:15:54.186Z,63.92
2023-02-02T21:20:57.609Z,64.15
2023-02-02T21:26:01.006Z,62.20
2023-02-02T21:31:05.131Z,66.97
2023-02-02T21:36:39.493Z,72.63
2023-02-02T21:41:48.887Z,86.05
2023-02-02T21:46:52.817Z,90.23
2023-02-02T21:51:59.995Z,88.28
2023-02-02T21:57:37.254Z,63.88
2023-02-02T22:02:45.124Z,58.40
2023-02-02T22:07:51.433Z,54.58
2023-02-02T22:12:54.972Z,59.83
2023-02-02T22:17:58.390Z,51.08
2023-02-02T22:23:06.779Z,41.75
2023-02-02T22:28:29.536Z,35.60
2023-02-02T22:33:33.192Z,31.65
2023-02-02T22:38:36.607Z,29.88
2023-02-02T22:43:40.000Z,27.92
2023-02-02T22:48:44.115Z,27.10
2023-02-02T22:53:48.047Z,25.67
2023-02-02T22:58:51.783Z,28.00
2023-02-02T23:03:55.471Z,25.90
2023-02-02T23:08:58.999Z,25.33
2023-02-02T23:14:03.507Z,23.67
2023-02-02T23:19:06.945Z,21.92
2023-02-02T23:24:10.385Z,27.50
2023-02-02T23:29:14.638Z,21.40
2023-02-02T23:34:18.123Z,21.70
2023-02-02T23:39:21.974Z,31.00
2023-02-02T23:44:25.489Z,21.15
2023-02-02T23:49:29.356Z,20.95
2023-02-02T23:54:34.219Z,19.83
2023-02-02T23:59:37.620Z,23.33
